Time;durP1;ratioP1;P1;durP2;ratioP2;P2;SDS_P1;SDS_P2;PMS_P1;PMS_P2;Temp;Humidity;BMP_temperature;BMP_pressure;BME280_temperature;BME280_humidity;BME280_pressure;Samples;Min_cycle;Max_cycle;Signal;HPM_P1;HPM_P2
2023/10/04 00:00:21;;;;;;;13.85;2.33;;;;;;;;;;5076595;27;20036;-69
2023/10/04 00:02:51;;;;;;;12.35;2.22;;;;;;;;;;5058095;28;20030;-69
2023/10/04 00:05:19;;;;;;;15.55;2.65;;;;;;;;;;5076747;28;20043;-69
2023/10/04 00:07:49;;;;;;;9.27;2.45;;;;;;;;;;5075918;28;20114;-69
2023/10/04 00:10:15;;;;;;;15.75;2.72;;;;;;;;;;5075930;28;20044;-69
2023/10/04 00:12:45;;;;;;;16.05;2.38;;;;;;;;;;5076637;28;21549;-69
2023/10/04 00:15:20;;;;;;;8.25;1.98;;;;;;;;;;5076071;28;20062;-69
2023/10/04 00:17:46;;;;;;;11.73;2.08;;;;;;;;;;5074646;28;20024;-69
2023/10/04 00:20:16;;;;;;;8.98;1.63;;;;;;;;;;5076051;28;20028;-69
2023/10/04 00:22:43;;;;;;;8.32;1.42;;;;;;;;;;5075604;28;20027;-69
2023/10/04 00:25:11;;;;;;;7.68;1.88;;;;;;;;;;5075861;27;20078;-69
2023/10/04 00:27:43;;;;;;;9.88;2.85;;;;;;;;;;5076048;28;20032;-69
2023/10/04 00:30:13;;;;;;;12.85;2.03;;;;;;;;;;5076756;28;20024;-68
2023/10/04 00:32:40;;;;;;;10.52;2.22;;;;;;;;;;5074448;28;20058;-68
2023/10/04 00:35:11;;;;;;;12.07;2.22;;;;;;;;;;5076092;27;20040;-68
2023/10/04 00:37:37;;;;;;;14.63;2.30;;;;;;;;;;5075540;28;20044;-68
2023/10/04 00:40:12;;;;;;;12.02;2.08;;;;;;;;;;5075605;28;20055;-69
2023/10/04 00:42:39;;;;;;;11.05;2.28;;;;;;;;;;5075140;28;20036;-68
2023/10/04 00:45:06;;;;;;;11.43;1.88;;;;;;;;;;5075790;28;20035;-69
2023/10/04 00:47:32;;;;;;;11.90;2.60;;;;;;;;;;5053604;28;20034;-68
2023/10/04 00:50:07;;;;;;;9.10;2.70;;;;;;;;;;5071928;28;20031;-69
2023/10/04 00:52:34;;;;;;;10.93;2.22;;;;;;;;;;5074076;28;20461;-69
2023/10/04 00:55:01;;;;;;;15.48;2.50;;;;;;;;;;5074105;28;20020;-68
2023/10/04 00:57:27;;;;;;;10.10;1.80;;;;;;;;;;5075201;28;20730;-68
2023/10/04 00:59:56;;;;;;;14.88;2.58;;;;;;;;;;5074478;27;20065;-69
2023/10/04 01:02:22;;;;;;;11.50;2.13;;;;;;;;;;5074961;28;20043;-69
2023/10/04 01:04:48;;;;;;;11.63;2.10;;;;;;;;;;5074927;28;20024;-68
2023/10/04 01:07:16;;;;;;;10.88;1.77;;;;;;;;;;5075825;27;20031;-69
2023/10/04 01:09:42;;;;;;;8.75;1.80;;;;;;;;;;5074627;28;20039;-68
2023/10/04 01:12:08;;;;;;;6.75;1.67;;;;;;;;;;5075691;28;20035;-69
2023/10/04 01:14:38;;;;;;;8.82;1.88;;;;;;;;;;5074467;28;21284;-69
2023/10/04 01:17:10;;;;;;;9.90;2.17;;;;;;;;;;5075353;28;20074;-69
2023/10/04 01:19:36;;;;;;;6.57;1.70;;;;;;;;;;5075583;28;21222;-69
2023/10/04 01:22:05;;;;;;;10.32;1.95;;;;;;;;;;5075695;28;20065;-69
2023/10/04 01:24:33;;;;;;;8.23;1.73;;;;;;;;;;5075030;28;20028;-69
2023/10/04 01:27:00;;;;;;;8.57;1.92;;;;;;;;;;5074347;28;20039;-67
2023/10/04 01:29:26;;;;;;;10.75;1.92;;;;;;;;;;5075023;28;20386;-68
2023/10/04 01:31:53;;;;;;;14.27;2.20;;;;;;;;;;5074338;28;20032;-69
2023/10/04 01:34:19;;;;;;;11.52;2.42;;;;;;;;;;5074168;28;20118;-68
2023/10/04 01:36:46;;;;;;;10.55;1.75;;;;;;;;;;5074550;28;20040;-68
2023/10/04 01:39:18;;;;;;;9.70;2.08;;;;;;;;;;5074035;28;20039;-68
2023/10/04 01:41:45;;;;;;;9.43;2.08;;;;;;;;;;5074117;28;20039;-69
2023/10/04 01:44:11;;;;;;;11.18;1.70;;;;;;;;;;5074864;28;20047;-68
2023/10/04 01:46:38;;;;;;;11.70;1.70;;;;;;;;;;5075070;28;20039;-69
2023/10/04 01:49:07;;;;;;;13.13;1.92;;;;;;;;;;5074941;27;20020;-68
2023/10/04 01:51:33;;;;;;;8.63;1.90;;;;;;;;;;5074008;28;20032;-68
2023/10/04 01:54:06;;;;;;;12.93;1.90;;;;;;;;;;5074651;28;20974;-68
2023/10/04 01:56:32;;;;;;;11.70;1.95;;;;;;;;;;5074273;28;20059;-68
2023/10/04 01:58:58;;;;;;;9.05;2.13;;;;;;;;;;5073835;28;20756;-69
2023/10/04 02:01:26;;;;;;;10.98;1.88;;;;;;;;;;5073779;28;20778;-69
2023/10/04 02:03:53;;;;;;;10.60;2.17;;;;;;;;;;5074315;28;20027;-69
2023/10/04 02:06:19;;;;;;;13.35;2.22;;;;;;;;;;5073827;28;20035;-68
2023/10/04 02:08:45;;;;;;;10.65;2.85;;;;;;;;;;5072504;28;20034;-68
2023/10/04 02:11:12;;;;;;;8.63;2.25;;;;;;;;;;5071671;28;20556;-68
2023/10/04 02:13:40;;;;;;;12.05;2.10;;;;;;;;;;5074351;28;20032;-68
2023/10/04 02:16:06;;;;;;;8.18;2.60;;;;;;;;;;5073378;28;20039;-68
2023/10/04 02:18:33;;;;;;;8.60;1.67;;;;;;;;;;5073906;28;20922;-68
2023/10/04 02:20:59;;;;;;;10.10;2.10;;;;;;;;;;5074536;28;20043;-68
2023/10/04 02:23:27;;;;;;;11.10;2.47;;;;;;;;;;5073246;28;20035;-68
2023/10/04 02:25:53;;;;;;;11.00;1.98;;;;;;;;;;5074159;28;20036;-68
2023/10/04 02:28:22;;;;;;;11.20;2.17;;;;;;;;;;5073479;28;20033;-68
2023/10/04 02:30:49;;;;;;;13.10;2.10;;;;;;;;;;5073042;28;20054;-68
2023/10/04 02:33:15;;;;;;;9.50;2.42;;;;;;;;;;5074601;28;20039;-69
2023/10/04 02:35:44;;;;;;;11.35;1.70;;;;;;;;;;5073965;28;20035;-68
2023/10/04 02:38:16;;;;;;;14.15;2.15;;;;;;;;;;5073062;28;20028;-68
2023/10/04 02:40:45;;;;;;;8.98;2.22;;;;;;;;;;5073419;28;20043;-69
2023/10/04 02:43:11;;;;;;;10.98;2.05;;;;;;;;;;5073729;28;21147;-69
2023/10/04 02:45:38;;;;;;;17.05;3.55;;;;;;;;;;5074209;28;20024;-69
2023/10/04 02:48:04;;;;;;;15.10;2.88;;;;;;;;;;5077887;28;20085;-66
2023/10/04 02:50:30;;;;;;;7.35;1.60;;;;;;;;;;5064897;28;20031;-66
2023/10/04 02:52:56;;;;;;;9.60;2.22;;;;;;;;;;5077060;28;20047;-66
2023/10/04 02:55:23;;;;;;;9.90;1.83;;;;;;;;;;5076765;28;20112;-66
2023/10/04 02:57:50;;;;;;;8.90;2.13;;;;;;;;;;5078041;27;20198;-66
2023/10/04 03:00:17;;;;;;;13.02;2.63;;;;;;;;;;5077924;28;20038;-66
2023/10/04 03:02:46;;;;;;;8.23;2.35;;;;;;;;;;5077093;28;20039;-66
2023/10/04 03:05:14;;;;;;;12.70;2.08;;;;;;;;;;5077287;27;20085;-66
2023/10/04 03:07:41;;;;;;;8.98;2.47;;;;;;;;;;5075428;28;20483;-68
2023/10/04 03:10:10;;;;;;;12.38;2.25;;;;;;;;;;5074692;28;20055;-68
2023/10/04 03:12:37;;;;;;;13.48;2.70;;;;;;;;;;5076862;28;20035;-68
2023/10/04 03:15:03;;;;;;;7.65;2.17;;;;;;;;;;5075551;27;20039;-68
2023/10/04 03:17:29;;;;;;;12.75;2.33;;;;;;;;;;5075647;28;20267;-68
2023/10/04 03:19:55;;;;;;;9.98;2.25;;;;;;;;;;5075511;28;20082;-68
2023/10/04 03:22:23;;;;;;;8.88;2.25;;;;;;;;;;5077247;28;20036;-68
2023/10/04 03:24:53;;;;;;;11.95;2.55;;;;;;;;;;5076033;27;20128;-68
2023/10/04 03:27:21;;;;;;;12.45;2.53;;;;;;;;;;5076887;28;20916;-68
2023/10/04 03:29:53;;;;;;;11.65;2.10;;;;;;;;;;5076824;28;20124;-68
2023/10/04 03:32:19;;;;;;;9.32;2.08;;;;;;;;;;5076932;28;20143;-68
2023/10/04 03:34:45;;;;;;;8.60;1.80;;;;;;;;;;5076506;27;20043;-68
2023/10/04 03:37:14;;;;;;;13.63;2.92;;;;;;;;;;5077604;28;21518;-69
2023/10/04 03:39:41;;;;;;;11.43;2.63;;;;;;;;;;5076301;28;20034;-68
2023/10/04 03:42:10;;;;;;;10.30;2.05;;;;;;;;;;5076460;27;20039;-69
2023/10/04 03:44:36;;;;;;;11.23;2.45;;;;;;;;;;5076318;27;20036;-68
2023/10/04 03:47:03;;;;;;;15.32;2.55;;;;;;;;;;5076439;28;20624;-68
2023/10/04 03:49:29;;;;;;;11.98;2.58;;;;;;;;;;5076395;28;20028;-68
2023/10/04 03:51:56;;;;;;;10.45;2.42;;;;;;;;;;5076414;28;20031;-68
2023/10/04 03:54:22;;;;;;;9.73;2.97;;;;;;;;;;5076506;27;20032;-69
2023/10/04 03:56:49;;;;;;;12.90;3.10;;;;;;;;;;5076410;28;20028;-68
2023/10/04 03:59:16;;;;;;;8.90;2.00;;;;;;;;;;5076156;27;20039;-68
2023/10/04 04:01:42;;;;;;;10.73;2.17;;;;;;;;;;5075206;28;20055;-68
2023/10/04 04:04:14;;;;;;;11.18;2.28;;;;;;;;;;5057094;27;20087;-68
2023/10/04 04:06:40;;;;;;;9.07;2.25;;;;;;;;;;5076629;28;20771;-68
2023/10/04 04:09:09;;;;;;;15.73;2.63;;;;;;;;;;5076458;28;20569;-68
2023/10/04 04:11:36;;;;;;;10.23;1.98;;;;;;;;;;5066502;28;20178;-68
2023/10/04 04:14:04;;;;;;;13.38;2.15;;;;;;;;;;5076049;28;20036;-68
2023/10/04 04:16:30;;;;;;;11.18;2.55;;;;;;;;;;5076406;28;20036;-68
2023/10/04 04:18:59;;;;;;;12.88;2.80;;;;;;;;;;5075619;27;20032;-68
2023/10/04 04:21:25;;;;;;;7.20;1.60;;;;;;;;;;5076830;28;20054;-68
2023/10/04 04:23:51;;;;;;;13.45;2.83;;;;;;;;;;5075916;28;20031;-69
2023/10/04 04:26:23;;;;;;;11.68;1.80;;;;;;;;;;5076055;28;20061;-68
2023/10/04 04:28:49;;;;;;;11.02;2.25;;;;;;;;;;5075353;28;20157;-68
2023/10/04 04:31:15;;;;;;;11.02;2.58;;;;;;;;;;5076006;28;20074;-68
2023/10/04 04:33:41;;;;;;;10.77;2.38;;;;;;;;;;5075622;28;20058;-68
2023/10/04 04:36:18;;;;;;;11.95;2.63;;;;;;;;;;5075373;28;20045;-68
2023/10/04 04:38:47;;;;;;;8.25;2.28;;;;;;;;;;5075955;28;20036;-68
2023/10/04 04:41:13;;;;;;;7.60;1.58;;;;;;;;;;5075283;28;20028;-68
2023/10/04 04:43:39;;;;;;;13.50;2.75;;;;;;;;;;5056866;28;20193;-68
2023/10/04 04:46:12;;;;;;;13.88;2.63;;;;;;;;;;5075189;28;20051;-68
2023/10/04 04:48:38;;;;;;;10.35;2.63;;;;;;;;;;5075174;27;20064;-68
2023/10/04 04:51:12;;;;;;;12.48;2.42;;;;;;;;;;5074510;28;20508;-67
2023/10/04 04:53:42;;;;;;;9.88;2.30;;;;;;;;;;5075875;28;20017;-68
2023/10/04 04:56:13;;;;;;;10.18;2.50;;;;;;;;;;5074803;27;20131;-68
2023/10/04 04:58:49;;;;;;;9.65;2.03;;;;;;;;;;5075676;28;20036;-68
2023/10/04 05:01:16;;;;;;;11.55;2.03;;;;;;;;;;5074914;28;20036;-67
2023/10/04 05:03:44;;;;;;;11.15;2.30;;;;;;;;;;5075019;28;20035;-68
2023/10/04 05:06:22;;;;;;;14.90;2.45;;;;;;;;;;5073808;28;20358;-68
2023/10/04 05:08:48;;;;;;;12.35;2.90;;;;;;;;;;5073482;28;21053;-68
2023/10/04 05:11:14;;;;;;;11.20;2.40;;;;;;;;;;5073482;28;20051;-68
2023/10/04 05:13:40;;;;;;;9.40;2.58;;;;;;;;;;5074489;28;20028;-68
2023/10/04 05:16:07;;;;;;;13.82;2.30;;;;;;;;;;5075279;28;20036;-68
2023/10/04 05:18:34;;;;;;;15.32;3.20;;;;;;;;;;5074293;28;20694;-68
2023/10/04 05:21:02;;;;;;;8.70;1.90;;;;;;;;;;5074040;28;20105;-68
2023/10/04 05:23:31;;;;;;;14.13;2.10;;;;;;;;;;5074549;28;20036;-68
2023/10/04 05:25:59;;;;;;;9.32;2.53;;;;;;;;;;5073482;27;20739;-68
2023/10/04 05:28:27;;;;;;;9.93;2.00;;;;;;;;;;5073515;28;20038;-67
2023/10/04 05:30:53;;;;;;;10.13;2.10;;;;;;;;;;5072234;28;20152;-68
2023/10/04 05:33:20;;;;;;;11.07;2.40;;;;;;;;;;5073905;28;20036;-67
2023/10/04 05:35:47;;;;;;;13.30;2.65;;;;;;;;;;5072484;28;20032;-68
2023/10/04 05:38:16;;;;;;;9.50;1.80;;;;;;;;;;5072840;28;20024;-67
2023/10/04 05:40:46;;;;;;;14.07;2.53;;;;;;;;;;5073792;28;20969;-67
2023/10/04 05:43:13;;;;;;;11.27;2.63;;;;;;;;;;5052399;28;20071;-68
2023/10/04 05:45:42;;;;;;;8.65;2.20;;;;;;;;;;5066950;28;20020;-68
2023/10/04 05:48:11;;;;;;;10.95;2.70;;;;;;;;;;5064343;28;20032;-67
2023/10/04 05:50:38;;;;;;;12.63;2.63;;;;;;;;;;5068207;28;20117;-67
2023/10/04 05:53:06;;;;;;;7.65;2.10;;;;;;;;;;5065991;28;20528;-67
2023/10/04 05:55:34;;;;;;;12.43;3.22;;;;;;;;;;5066652;28;20066;-67
2023/10/04 05:58:00;;;;;;;10.82;2.95;;;;;;;;;;5066886;28;20093;-67
2023/10/04 06:00:28;;;;;;;10.93;2.50;;;;;;;;;;5067175;28;20039;-67
2023/10/04 06:02:55;;;;;;;10.00;2.53;;;;;;;;;;5066392;28;20036;-67
2023/10/04 06:05:24;;;;;;;10.13;3.33;;;;;;;;;;5067035;28;20054;-67
2023/10/04 06:07:54;;;;;;;7.97;2.15;;;;;;;;;;5065851;28;20027;-67
2023/10/04 06:10:21;;;;;;;11.63;2.58;;;;;;;;;;5066441;28;20044;-67
2023/10/04 06:12:47;;;;;;;11.80;2.75;;;;;;;;;;5065178;28;20028;-67
2023/10/04 06:15:16;;;;;;;9.52;2.88;;;;;;;;;;5071982;28;20036;-67
2023/10/04 06:17:44;;;;;;;11.60;2.65;;;;;;;;;;5073307;28;20029;-67
2023/10/04 06:23:11;;;;;;;13.15;3.47;;;;;;;;;;5022087;28;21126;-67
2023/10/04 06:25:47;;;;;;;12.52;3.15;;;;;;;;;;5061009;28;20057;-67
2023/10/04 06:28:13;;;;;;;14.60;3.08;;;;;;;;;;5072817;28;20032;-67
2023/10/04 06:30:40;;;;;;;14.73;3.90;;;;;;;;;;5073112;28;20068;-67
2023/10/04 06:33:07;;;;;;;12.95;3.28;;;;;;;;;;5073073;28;20174;-67
2023/10/04 06:35:33;;;;;;;15.93;3.70;;;;;;;;;;5074032;28;20113;-67
2023/10/04 06:38:03;;;;;;;11.75;2.85;;;;;;;;;;5073824;28;20032;-67
2023/10/04 06:40:31;;;;;;;13.02;3.30;;;;;;;;;;5073130;28;20020;-67
2023/10/04 06:42:58;;;;;;;10.80;2.88;;;;;;;;;;5072663;28;20043;-67
2023/10/04 06:45:24;;;;;;;13.48;2.90;;;;;;;;;;5073314;28;20076;-67
2023/10/04 06:47:51;;;;;;;10.70;2.85;;;;;;;;;;5071860;28;20032;-67
2023/10/04 06:50:19;;;;;;;9.40;3.00;;;;;;;;;;5073340;28;20027;-67
2023/10/04 06:52:47;;;;;;;14.00;3.90;;;;;;;;;;5073011;28;20040;-67
2023/10/04 06:55:13;;;;;;;15.88;4.00;;;;;;;;;;5073410;28;21717;-67
2023/10/04 06:57:39;;;;;;;14.65;3.55;;;;;;;;;;5073455;28;20037;-67
2023/10/04 07:00:15;;;;;;;10.82;3.38;;;;;;;;;;5073764;28;20034;-67
2023/10/04 07:02:43;;;;;;;8.43;3.00;;;;;;;;;;5071936;28;20342;-67
2023/10/04 07:05:18;;;;;;;10.80;3.47;;;;;;;;;;5072653;28;20077;-67
2023/10/04 07:07:48;;;;;;;13.57;3.95;;;;;;;;;;5073272;28;20468;-67
2023/10/04 07:10:15;;;;;;;13.52;3.30;;;;;;;;;;5072813;28;20071;-67
2023/10/04 07:12:43;;;;;;;12.07;2.92;;;;;;;;;;5072722;28;21764;-67
2023/10/04 07:15:10;;;;;;;12.77;3.22;;;;;;;;;;5072743;28;20201;-67
2023/10/04 07:17:38;;;;;;;11.50;3.60;;;;;;;;;;5069561;28;20032;-67
2023/10/04 07:20:07;;;;;;;16.42;3.58;;;;;;;;;;5072523;28;20058;-67
2023/10/04 07:22:33;;;;;;;13.70;3.95;;;;;;;;;;5073188;28;20024;-67
2023/10/04 07:24:59;;;;;;;14.75;4.00;;;;;;;;;;5072745;28;20036;-67
2023/10/04 07:27:26;;;;;;;12.40;3.35;;;;;;;;;;5072892;28;20046;-67
2023/10/04 07:29:53;;;;;;;12.50;3.25;;;;;;;;;;5071159;28;20077;-67
2023/10/04 07:32:19;;;;;;;12.68;3.20;;;;;;;;;;5071817;28;20925;-67
2023/10/04 07:34:46;;;;;;;14.13;3.55;;;;;;;;;;5076843;28;20039;-67
2023/10/04 07:37:12;;;;;;;11.38;4.00;;;;;;;;;;5075708;27;20823;-67
2023/10/04 07:39:38;;;;;;;12.10;3.45;;;;;;;;;;5077429;28;20035;-67
2023/10/04 07:42:04;;;;;;;14.00;3.97;;;;;;;;;;5065074;28;20036;-67
2023/10/04 07:44:30;;;;;;;12.85;3.80;;;;;;;;;;5055864;28;21040;-67
2023/10/04 07:47:00;;;;;;;13.73;3.45;;;;;;;;;;5074666;28;20047;-67
2023/10/04 07:49:26;;;;;;;12.65;4.00;;;;;;;;;;5075119;28;20688;-67
2023/10/04 07:51:53;;;;;;;10.27;3.03;;;;;;;;;;5077945;27;20387;-67
2023/10/04 07:54:19;;;;;;;17.83;3.80;;;;;;;;;;5078935;28;20830;-67
2023/10/04 07:56:46;;;;;;;12.68;3.63;;;;;;;;;;5078506;28;20040;-68
2023/10/04 07:59:12;;;;;;;11.55;3.80;;;;;;;;;;5078643;28;20097;-67
2023/10/04 08:01:39;;;;;;;13.80;3.85;;;;;;;;;;5076820;28;20032;-67
2023/10/04 08:04:07;;;;;;;13.90;4.10;;;;;;;;;;5076108;28;20032;-67
2023/10/04 08:06:36;;;;;;;14.55;4.20;;;;;;;;;;5075507;28;20433;-67
2023/10/04 08:09:04;;;;;;;14.57;4.10;;;;;;;;;;5076867;27;20062;-67
2023/10/04 08:11:33;;;;;;;21.38;4.18;;;;;;;;;;5076178;28;20047;-67
2023/10/04 08:14:01;;;;;;;17.67;4.53;;;;;;;;;;5076434;28;20101;-67
2023/10/04 08:16:27;;;;;;;12.55;3.63;;;;;;;;;;5076070;28;20040;-67
2023/10/04 08:18:57;;;;;;;16.67;4.05;;;;;;;;;;5076005;27;20028;-68
2023/10/04 08:21:23;;;;;;;15.05;4.57;;;;;;;;;;5075868;28;20063;-67
2023/10/04 08:23:50;;;;;;;11.60;3.67;;;;;;;;;;5075948;28;20554;-67
2023/10/04 08:26:16;;;;;;;12.77;3.90;;;;;;;;;;5075986;28;20058;-67
2023/10/04 08:28:43;;;;;;;14.98;3.92;;;;;;;;;;5076154;28;20028;-67
2023/10/04 08:31:11;;;;;;;15.98;4.75;;;;;;;;;;5075916;28;20664;-67
2023/10/04 08:33:37;;;;;;;12.88;4.38;;;;;;;;;;5075833;27;20038;-68
2023/10/04 08:36:08;;;;;;;13.32;3.92;;;;;;;;;;5076815;28;20040;-68
2023/10/04 08:38:34;;;;;;;14.50;4.03;;;;;;;;;;5075923;28;20035;-68
2023/10/04 08:41:04;;;;;;;13.77;4.07;;;;;;;;;;5075546;28;20028;-67
2023/10/04 08:43:33;;;;;;;20.13;5.00;;;;;;;;;;5073951;28;20036;-67
2023/10/04 08:45:59;;;;;;;16.33;4.00;;;;;;;;;;5075406;28;20028;-68
2023/10/04 08:48:29;;;;;;;14.70;3.90;;;;;;;;;;5058048;28;20051;-68
2023/10/04 08:51:01;;;;;;;14.85;3.95;;;;;;;;;;5075463;28;20035;-67
2023/10/04 08:53:44;;;;;;;16.33;3.95;;;;;;;;;;5074512;27;20035;-67
2023/10/04 08:56:12;;;;;;;9.18;3.85;;;;;;;;;;5073609;28;20102;-67
2023/10/04 08:58:40;;;;;;;13.80;4.10;;;;;;;;;;5074161;28;20032;-68
2023/10/04 09:01:06;;;;;;;17.75;4.18;;;;;;;;;;5074525;28;20040;-68
2023/10/04 09:03:36;;;;;;;16.55;4.15;;;;;;;;;;5074915;28;20135;-68
2023/10/04 09:06:05;;;;;;;14.00;3.35;;;;;;;;;;5074539;28;20896;-67
2023/10/04 09:08:31;;;;;;;15.90;4.68;;;;;;;;;;5075473;27;20019;-67
2023/10/04 09:10:58;;;;;;;10.23;3.25;;;;;;;;;;5074219;28;20043;-68
2023/10/04 09:13:24;;;;;;;13.73;4.03;;;;;;;;;;5074652;27;20120;-68
2023/10/04 09:15:52;;;;;;;14.90;4.43;;;;;;;;;;5074384;28;21720;-68
2023/10/04 09:18:28;;;;;;;15.88;4.28;;;;;;;;;;5074535;28;20039;-68
2023/10/04 09:20:54;;;;;;;13.60;4.40;;;;;;;;;;5073844;28;20043;-68
2023/10/04 09:23:22;;;;;;;14.02;3.50;;;;;;;;;;5073945;28;20043;-68
2023/10/04 09:25:48;;;;;;;13.35;3.55;;;;;;;;;;5074775;28;20108;-68
2023/10/04 09:28:14;;;;;;;12.40;4.32;;;;;;;;;;5075119;28;20031;-68
2023/10/04 09:30:41;;;;;;;16.80;4.47;;;;;;;;;;5074519;28;20038;-67
2023/10/04 09:33:21;;;;;;;10.68;3.85;;;;;;;;;;5065638;28;20032;-67
2023/10/04 09:35:51;;;;;;;12.32;4.50;;;;;;;;;;5076220;28;20063;-68
2023/10/04 09:38:21;;;;;;;13.93;4.63;;;;;;;;;;5074788;28;20027;-68
2023/10/04 09:40:51;;;;;;;11.38;3.67;;;;;;;;;;5075060;28;20114;-68
2023/10/04 09:43:17;;;;;;;13.90;4.25;;;;;;;;;;5074659;28;20024;-68
2023/10/04 09:45:56;;;;;;;12.90;4.15;;;;;;;;;;5074660;28;20154;-68
2023/10/04 09:48:25;;;;;;;13.32;3.85;;;;;;;;;;5074684;28;20034;-68
2023/10/04 09:50:58;;;;;;;11.60;3.92;;;;;;;;;;5074316;28;20089;-68
2023/10/04 09:53:24;;;;;;;9.85;3.97;;;;;;;;;;5074246;28;20053;-68
2023/10/04 09:55:50;;;;;;;13.10;4.03;;;;;;;;;;5074668;28;20032;-68
2023/10/04 09:58:20;;;;;;;18.55;4.70;;;;;;;;;;5074356;28;20036;-68
2023/10/04 10:00:46;;;;;;;11.73;4.85;;;;;;;;;;5072311;28;20024;-68
2023/10/04 10:03:13;;;;;;;9.60;3.70;;;;;;;;;;5073152;27;21848;-68
2023/10/04 10:05:41;;;;;;;13.05;4.32;;;;;;;;;;5071339;28;20054;-68
2023/10/04 10:08:09;;;;;;;14.43;4.35;;;;;;;;;;5071864;28;20016;-68
2023/10/04 10:10:37;;;;;;;10.93;3.60;;;;;;;;;;5071959;28;21704;-68
2023/10/04 10:13:05;;;;;;;10.40;3.85;;;;;;;;;;5072885;28;20769;-68
2023/10/04 10:15:32;;;;;;;21.35;4.97;;;;;;;;;;5072987;28;20023;-68
2023/10/04 10:17:59;;;;;;;13.52;4.68;;;;;;;;;;5072211;28;20055;-67
2023/10/04 10:20:25;;;;;;;13.07;4.28;;;;;;;;;;5070595;28;20413;-68
2023/10/04 10:22:57;;;;;;;12.07;4.18;;;;;;;;;;5072960;28;20032;-68
2023/10/04 10:25:25;;;;;;;9.63;3.83;;;;;;;;;;5071969;28;20024;-68
2023/10/04 10:27:51;;;;;;;11.95;4.38;;;;;;;;;;5072084;28;20061;-68
2023/10/04 10:30:18;;;;;;;9.93;4.05;;;;;;;;;;5073714;28;20642;-68
2023/10/04 10:32:53;;;;;;;11.43;3.83;;;;;;;;;;5073620;28;20082;-68
2023/10/04 10:35:40;;;;;;;18.25;4.85;;;;;;;;;;5073439;28;20076;-68
2023/10/04 10:38:45;;;;;;;15.10;4.40;;;;;;;;;;5060546;28;20456;-68
2023/10/04 10:41:46;;;;;;;12.98;4.25;;;;;;;;;;4962687;28;20042;-68
2023/10/04 10:44:19;;;;;;;10.80;4.00;;;;;;;;;;4920942;29;20049;-68
2023/10/04 10:46:54;;;;;;;12.35;4.40;;;;;;;;;;5039616;28;20042;-68
2023/10/04 10:49:41;;;;;;;12.70;4.15;;;;;;;;;;5073599;28;20753;-68
2023/10/04 10:52:09;;;;;;;14.45;4.40;;;;;;;;;;5073176;28;20043;-69
2023/10/04 10:54:36;;;;;;;16.40;4.38;;;;;;;;;;5073922;28;20036;-68
2023/10/04 10:57:05;;;;;;;14.00;4.90;;;;;;;;;;5074434;28;20366;-68
2023/10/04 10:59:31;;;;;;;14.93;4.78;;;;;;;;;;5071715;28;20038;-68
2023/10/04 11:01:58;;;;;;;10.23;3.95;;;;;;;;;;5073001;28;20951;-68
2023/10/04 11:04:25;;;;;;;12.25;4.32;;;;;;;;;;5072766;28;20112;-68
2023/10/04 11:06:51;;;;;;;13.05;3.90;;;;;;;;;;5074115;28;20461;-68
2023/10/04 11:09:19;;;;;;;17.48;4.88;;;;;;;;;;5076763;28;20051;-68
2023/10/04 11:11:45;;;;;;;13.85;4.07;;;;;;;;;;5077330;28;20082;-68
2023/10/04 11:14:16;;;;;;;12.05;4.68;;;;;;;;;;5077439;28;20507;-68
2023/10/04 11:16:42;;;;;;;13.95;4.95;;;;;;;;;;5077259;28;20110;-68
2023/10/04 11:19:08;;;;;;;10.85;4.10;;;;;;;;;;5077514;27;20086;-68
2023/10/04 11:21:35;;;;;;;12.90;4.60;;;;;;;;;;5076616;28;20437;-68
2023/10/04 11:24:03;;;;;;;13.25;4.30;;;;;;;;;;5073319;28;21692;-68
2023/10/04 11:26:30;;;;;;;11.63;3.97;;;;;;;;;;5077086;28;20027;-68
2023/10/04 11:28:57;;;;;;;13.02;4.75;;;;;;;;;;5077341;28;20036;-69
2023/10/04 11:31:23;;;;;;;16.08;5.22;;;;;;;;;;5077345;28;20043;-68
2023/10/04 11:33:55;;;;;;;13.55;4.82;;;;;;;;;;5077389;28;20039;-68
2023/10/04 11:36:22;;;;;;;14.52;4.57;;;;;;;;;;5077039;28;20028;-68
2023/10/04 11:38:52;;;;;;;12.75;4.10;;;;;;;;;;5077339;27;20040;-68
2023/10/04 11:41:22;;;;;;;11.05;4.25;;;;;;;;;;5076850;28;20116;-68
2023/10/04 11:43:53;;;;;;;12.52;4.70;;;;;;;;;;5075860;28;20054;-68
2023/10/04 11:46:21;;;;;;;14.60;4.00;;;;;;;;;;5076134;28;20031;-68
2023/10/04 11:48:47;;;;;;;15.60;5.22;;;;;;;;;;5076466;27;20024;-68
2023/10/04 11:51:27;;;;;;;12.93;4.10;;;;;;;;;;5076031;27;20031;-68
2023/10/04 11:53:54;;;;;;;14.45;4.60;;;;;;;;;;5077031;28;20511;-68
2023/10/04 11:56:21;;;;;;;13.50;4.18;;;;;;;;;;5075335;28;20747;-69
2023/10/04 11:58:50;;;;;;;13.57;4.18;;;;;;;;;;5075507;27;20036;-68
2023/10/04 12:01:17;;;;;;;17.02;4.18;;;;;;;;;;5075386;28;20078;-68
2023/10/04 12:03:43;;;;;;;10.82;3.90;;;;;;;;;;5076108;28;20031;-69
2023/10/04 12:06:09;;;;;;;15.20;4.68;;;;;;;;;;5076504;27;20507;-69
2023/10/04 12:08:39;;;;;;;11.13;3.95;;;;;;;;;;5077649;28;20186;-69
2023/10/04 12:11:13;;;;;;;13.10;4.35;;;;;;;;;;5075126;28;20030;-68
2023/10/04 12:13:39;;;;;;;15.02;4.70;;;;;;;;;;5076577;27;20382;-69
2023/10/04 12:16:06;;;;;;;12.05;4.60;;;;;;;;;;5076223;28;20035;-69
2023/10/04 12:18:32;;;;;;;15.20;4.35;;;;;;;;;;5077450;27;20122;-68
2023/10/04 12:20:58;;;;;;;10.52;3.40;;;;;;;;;;5077720;28;20062;-69
2023/10/04 12:23:24;;;;;;;13.75;3.95;;;;;;;;;;5077393;28;20036;-69
2023/10/04 12:25:50;;;;;;;10.55;3.10;;;;;;;;;;5078377;28;20028;-69
2023/10/04 12:28:16;;;;;;;11.82;3.28;;;;;;;;;;5077397;27;20032;-69
2023/10/04 12:30:43;;;;;;;10.20;3.40;;;;;;;;;;5078083;28;20028;-68
2023/10/04 12:33:09;;;;;;;12.60;3.28;;;;;;;;;;5078419;28;20028;-68
2023/10/04 12:35:35;;;;;;;9.20;3.28;;;;;;;;;;5078424;28;20146;-69
2023/10/04 12:38:03;;;;;;;14.65;3.60;;;;;;;;;;5077750;27;20051;-68
2023/10/04 12:40:29;;;;;;;14.27;3.45;;;;;;;;;;5078210;28;20036;-68
2023/10/04 12:42:56;;;;;;;9.98;3.58;;;;;;;;;;5077238;28;20217;-69
2023/10/04 12:45:23;;;;;;;12.60;3.72;;;;;;;;;;5073025;28;20746;-68
2023/10/04 12:47:50;;;;;;;13.55;3.05;;;;;;;;;;5074098;28;20031;-68
2023/10/04 12:50:16;;;;;;;7.63;2.67;;;;;;;;;;5075348;28;20020;-68
2023/10/04 12:52:42;;;;;;;8.35;2.90;;;;;;;;;;5075541;28;20028;-68
2023/10/04 12:55:09;;;;;;;10.77;2.60;;;;;;;;;;5074870;28;20044;-68
2023/10/04 12:57:35;;;;;;;9.93;3.15;;;;;;;;;;5075435;28;20806;-68
2023/10/04 13:00:11;;;;;;;9.68;2.85;;;;;;;;;;5075805;28;20028;-68
2023/10/04 13:02:38;;;;;;;8.43;2.42;;;;;;;;;;5075287;28;21625;-68
2023/10/04 13:05:04;;;;;;;9.65;2.67;;;;;;;;;;5075476;28;20734;-68
2023/10/04 13:07:32;;;;;;;9.38;2.80;;;;;;;;;;5076250;28;20720;-69
2023/10/04 13:09:59;;;;;;;12.05;3.33;;;;;;;;;;5075362;28;20046;-68
2023/10/04 13:12:25;;;;;;;13.60;2.78;;;;;;;;;;5074806;28;21075;-68
2023/10/04 13:14:53;;;;;;;8.23;2.83;;;;;;;;;;5072433;28;20426;-68
2023/10/04 13:17:19;;;;;;;12.75;2.65;;;;;;;;;;5073804;28;20700;-68
2023/10/04 13:19:46;;;;;;;12.35;3.10;;;;;;;;;;5073632;28;20036;-68
2023/10/04 13:22:12;;;;;;;10.02;2.55;;;;;;;;;;5062076;28;20541;-69
2023/10/04 13:24:38;;;;;;;8.77;2.30;;;;;;;;;;5073859;28;20099;-68
2023/10/04 13:27:04;;;;;;;10.82;2.83;;;;;;;;;;5055690;28;20035;-68
2023/10/04 13:29:30;;;;;;;12.73;3.05;;;;;;;;;;5073571;28;20028;-68
2023/10/04 13:31:56;;;;;;;9.90;2.67;;;;;;;;;;5073343;28;20036;-68
2023/10/04 13:34:22;;;;;;;8.95;2.55;;;;;;;;;;5074242;28;20032;-68
2023/10/04 13:36:49;;;;;;;9.93;2.15;;;;;;;;;;5074776;28;20039;-68
2023/10/04 13:39:17;;;;;;;10.73;2.67;;;;;;;;;;5073898;28;20538;-69
2023/10/04 13:41:43;;;;;;;8.98;2.22;;;;;;;;;;5073513;28;20039;-68
2023/10/04 13:44:09;;;;;;;10.55;3.03;;;;;;;;;;5073365;27;20036;-68
2023/10/04 13:46:35;;;;;;;9.82;3.05;;;;;;;;;;5075606;28;20027;-68
2023/10/04 13:49:01;;;;;;;8.23;2.25;;;;;;;;;;5073828;28;20035;-68
2023/10/04 13:51:28;;;;;;;10.60;3.13;;;;;;;;;;5055250;28;20088;-68
2023/10/04 13:53:54;;;;;;;8.00;2.47;;;;;;;;;;5074860;28;20062;-68
2023/10/04 13:56:20;;;;;;;10.23;3.45;;;;;;;;;;5073907;28;20110;-68
2023/10/04 13:58:47;;;;;;;10.10;2.92;;;;;;;;;;5074202;28;20479;-68
2023/10/04 14:01:14;;;;;;;13.90;2.92;;;;;;;;;;5073028;28;20036;-68
2023/10/04 14:03:41;;;;;;;8.20;2.70;;;;;;;;;;5074059;28;20091;-68
2023/10/04 14:06:12;;;;;;;11.50;3.28;;;;;;;;;;5073575;28;20971;-68
2023/10/04 14:08:38;;;;;;;11.73;3.10;;;;;;;;;;5070596;28;21077;-68
2023/10/04 14:11:04;;;;;;;8.70;3.05;;;;;;;;;;5072699;28;20039;-68
2023/10/04 14:13:33;;;;;;;8.43;2.88;;;;;;;;;;5073123;27;20032;-68
2023/10/04 14:16:01;;;;;;;11.00;2.60;;;;;;;;;;5073896;28;20024;-68
2023/10/04 14:18:28;;;;;;;8.48;2.45;;;;;;;;;;5072047;28;20028;-68
2023/10/04 14:20:57;;;;;;;11.25;2.78;;;;;;;;;;5073605;28;20996;-68
2023/10/04 14:23:25;;;;;;;9.05;2.60;;;;;;;;;;5072912;28;20174;-68
2023/10/04 14:25:54;;;;;;;9.45;3.17;;;;;;;;;;5074407;28;20535;-68
2023/10/04 14:28:20;;;;;;;7.78;2.58;;;;;;;;;;5072679;28;21786;-68
2023/10/04 14:30:47;;;;;;;9.40;2.70;;;;;;;;;;5073218;28;20024;-68
2023/10/04 14:33:13;;;;;;;12.82;2.88;;;;;;;;;;5073295;28;20051;-68
2023/10/04 14:35:39;;;;;;;9.45;2.42;;;;;;;;;;5073875;28;20406;-68
2023/10/04 14:38:08;;;;;;;11.80;2.90;;;;;;;;;;5073005;28;20663;-68
2023/10/04 14:40:35;;;;;;;6.05;2.08;;;;;;;;;;5073256;28;20043;-68